createdAt,value
2019-02-05T00:00:50.825Z,1.97
2019-02-05T00:03:22.072Z,2.52
2019-02-05T00:05:51.680Z,2.20
2019-02-05T00:08:21.184Z,2.30
2019-02-05T00:10:50.573Z,2.10
2019-02-05T00:13:19.999Z,2.10
2019-02-05T00:15:49.371Z,2.47
2019-02-05T00:18:18.731Z,2.17
2019-02-05T00:20:48.223Z,2.40
2019-02-05T00:23:17.611Z,2.23
2019-02-05T00:25:46.992Z,2.30
2019-02-05T00:28:16.347Z,2.17
2019-02-05T00:30:45.722Z,2.30
2019-02-05T00:33:15.559Z,2.23
2019-02-05T00:35:44.936Z,2.23
2019-02-05T00:38:14.298Z,2.13
2019-02-05T00:40:43.665Z,1.93
2019-02-05T00:43:13.292Z,2.20
2019-02-05T00:45:42.668Z,2.60
2019-02-05T00:48:12.348Z,2.20
2019-02-05T00:50:41.732Z,2.20
2019-02-05T00:53:11.083Z,2.33
2019-02-05T00:55:42.182Z,2.80
2019-02-05T00:58:11.548Z,2.23
2019-02-05T01:00:40.921Z,2.13
2019-02-05T01:03:10.493Z,2.20
2019-02-05T01:05:39.895Z,1.97
2019-02-05T01:08:09.397Z,2.43
2019-02-05T01:10:39.035Z,1.80
2019-02-05T01:13:10.292Z,2.17
2019-02-05T01:15:39.698Z,2.07
2019-02-05T01:18:09.057Z,2.45
2019-02-05T01:20:38.413Z,1.95
2019-02-05T01:23:08.041Z,2.30
2019-02-05T01:25:37.398Z,2.10
2019-02-05T01:28:06.917Z,1.83
2019-02-05T01:30:36.280Z,2.17
2019-02-05T01:33:05.997Z,2.30
2019-02-05T01:35:36.384Z,2.42
2019-02-05T01:38:06.034Z,2.10
2019-02-05T01:40:35.630Z,2.17
2019-02-05T01:43:05.138Z,2.47
2019-02-05T01:45:34.513Z,2.10
2019-02-05T01:48:03.945Z,1.90
2019-02-05T01:50:33.307Z,2.37
2019-02-05T01:53:03.051Z,2.50
2019-02-05T01:55:33.338Z,2.15
2019-02-05T01:58:02.716Z,2.53
2019-02-05T02:00:35.022Z,2.00
2019-02-05T02:03:05.424Z,2.50
2019-02-05T02:05:34.952Z,2.05
2019-02-05T02:08:04.588Z,2.37
2019-02-05T02:10:34.090Z,2.20
2019-02-05T02:13:03.458Z,2.20
2019-02-05T02:15:32.812Z,2.43
2019-02-05T02:18:02.180Z,2.03
2019-02-05T02:20:31.777Z,2.70
2019-02-05T02:23:01.137Z,2.20
2019-02-05T02:25:30.502Z,2.20
2019-02-05T02:27:59.866Z,2.40
2019-02-05T02:30:37.546Z,2.47
2019-02-05T02:33:07.611Z,3.00
2019-02-05T02:35:37.421Z,2.33
2019-02-05T02:38:06.874Z,2.30
2019-02-05T02:40:36.239Z,2.30
2019-02-05T02:43:05.739Z,2.50
2019-02-05T02:45:35.115Z,3.50
2019-02-05T02:48:04.625Z,2.47
2019-02-05T02:50:34.170Z,2.57
2019-02-05T02:53:03.588Z,2.30
2019-02-05T02:55:33.291Z,2.17
2019-02-05T02:58:02.661Z,2.37
2019-02-05T03:00:32.026Z,2.60
2019-02-05T03:03:01.385Z,2.70
2019-02-05T03:05:31.025Z,2.67
2019-02-05T03:08:00.396Z,2.37
2019-02-05T03:10:31.396Z,2.70
2019-02-05T03:13:00.901Z,2.30
2019-02-05T03:15:30.510Z,2.53
2019-02-05T03:18:00.118Z,2.70
2019-02-05T03:20:29.488Z,2.50
2019-02-05T03:22:58.847Z,2.47
2019-02-05T03:25:28.230Z,3.00
2019-02-05T03:27:57.587Z,2.43
2019-02-05T03:30:27.250Z,2.40
2019-02-05T03:32:57.812Z,2.73
2019-02-05T03:35:27.320Z,2.50
2019-02-05T03:37:57.084Z,2.83
2019-02-05T03:40:34.089Z,3.30
2019-02-05T03:43:03.529Z,2.73
2019-02-05T03:45:34.114Z,2.90
2019-02-05T03:48:06.177Z,2.90
2019-02-05T03:50:40.812Z,2.75
2019-02-05T03:53:17.464Z,2.77
2019-02-05T03:56:21.405Z,2.90
2019-02-05T03:59:23.209Z,3.17
2019-02-05T04:02:34.907Z,2.70
2019-02-05T04:05:41.459Z,2.90
2019-02-05T04:08:27.459Z,3.07
2019-02-05T04:11:22.608Z,3.33
2019-02-05T04:14:05.532Z,3.10
2019-02-05T04:17:01.977Z,2.73
2019-02-05T04:19:54.147Z,3.20
2019-02-05T04:22:49.269Z,3.20
2019-02-05T04:25:41.692Z,3.03
2019-02-05T04:28:38.051Z,3.10
2019-02-05T04:31:14.815Z,3.00
2019-02-05T04:33:51.390Z,3.30
2019-02-05T04:37:02.917Z,3.23
2019-02-05T04:39:46.206Z,3.37
2019-02-05T04:42:40.337Z,2.97
2019-02-05T04:45:46.074Z,3.20
2019-02-05T04:48:43.706Z,3.10
2019-02-05T04:51:53.031Z,3.62
2019-02-05T04:55:06.907Z,3.63
2019-02-05T04:58:06.584Z,3.27
2019-02-05T05:01:05.674Z,3.10
2019-02-05T05:04:03.576Z,3.00
2019-02-05T05:07:04.974Z,2.77
2019-02-05T05:09:57.493Z,2.43
2019-02-05T05:12:27.941Z,2.90
2019-02-05T05:14:57.288Z,2.93
2019-02-05T05:17:26.655Z,2.80
2019-02-05T05:19:56.019Z,3.00
2019-02-05T05:22:26.296Z,3.05
2019-02-05T05:24:55.943Z,3.10
2019-02-05T05:27:26.066Z,2.70
2019-02-05T05:29:55.971Z,2.55
2019-02-05T05:32:25.332Z,3.37
2019-02-05T05:34:54.988Z,3.03
2019-02-05T05:37:24.425Z,2.95
2019-02-05T05:39:53.774Z,3.25
2019-02-05T05:42:23.466Z,3.30
2019-02-05T05:44:52.839Z,2.93
2019-02-05T05:47:22.216Z,3.30
2019-02-05T05:49:51.589Z,2.80
2019-02-05T05:52:20.955Z,2.77
2019-02-05T05:54:50.326Z,3.10
2019-02-05T05:57:19.701Z,3.50
2019-02-05T05:59:49.256Z,2.87
2019-02-05T06:02:20.259Z,3.10
2019-02-05T06:04:49.633Z,3.50
2019-02-05T06:07:18.987Z,3.12
2019-02-05T06:09:48.517Z,3.00
2019-02-05T06:12:17.882Z,3.13
2019-02-05T06:14:47.430Z,2.60
2019-02-05T06:17:17.046Z,3.10
2019-02-05T06:19:46.502Z,3.00
2019-02-05T06:22:15.865Z,2.87
2019-02-05T06:24:45.551Z,2.93
2019-02-05T06:27:14.913Z,3.07
2019-02-05T06:29:44.290Z,3.03
2019-02-05T06:32:13.636Z,3.40
2019-02-05T06:34:43.005Z,3.60
2019-02-05T06:37:12.680Z,3.17
2019-02-05T06:39:42.043Z,3.53
2019-02-05T06:42:11.440Z,2.70
2019-02-05T06:44:40.815Z,3.30
2019-02-05T06:47:10.461Z,3.23
2019-02-05T06:49:40.966Z,3.10
2019-02-05T06:52:10.412Z,3.43
2019-02-05T06:54:41.305Z,3.20
2019-02-05T06:57:10.683Z,3.50
2019-02-05T06:59:40.133Z,3.50
2019-02-05T07:02:11.084Z,3.73
2019-02-05T07:04:40.441Z,3.93
2019-02-05T07:07:09.915Z,3.87
2019-02-05T07:09:39.269Z,3.67
2019-02-05T07:12:08.657Z,3.80
2019-02-05T07:14:40.791Z,4.37
2019-02-05T07:17:10.489Z,3.60
2019-02-05T07:19:40.221Z,3.72
2019-02-05T07:22:09.583Z,3.83
2019-02-05T07:24:38.941Z,3.97
2019-02-05T07:27:08.382Z,3.50
2019-02-05T07:29:37.908Z,3.60
2019-02-05T07:32:07.889Z,3.60
2019-02-05T07:34:37.486Z,4.07
2019-02-05T07:37:06.932Z,3.77
2019-02-05T07:39:36.300Z,3.87
2019-02-05T07:42:05.745Z,4.23
2019-02-05T07:44:35.106Z,4.60
2019-02-05T07:47:04.785Z,4.27
2019-02-05T07:49:34.145Z,4.03
2019-02-05T07:52:03.539Z,4.15
2019-02-05T07:54:32.882Z,4.20
2019-02-05T07:57:02.273Z,4.03
2019-02-05T07:59:31.654Z,4.13
2019-02-05T08:02:01.399Z,4.00
2019-02-05T08:04:30.760Z,4.27
2019-02-05T08:07:00.425Z,4.57
2019-02-05T08:09:29.886Z,4.72
2019-02-05T08:11:59.278Z,4.43
2019-02-05T08:14:29.006Z,5.10
2019-02-05T08:16:58.650Z,4.47
2019-02-05T08:19:28.035Z,4.37
2019-02-05T08:21:57.487Z,4.63
2019-02-05T08:24:27.026Z,3.98
2019-02-05T08:26:56.582Z,4.77
2019-02-05T08:29:26.984Z,4.86
2019-02-05T08:31:56.366Z,3.97
2019-02-05T08:34:25.725Z,4.50
2019-02-05T08:36:55.087Z,4.60
2019-02-05T08:39:24.705Z,4.83
2019-02-05T08:41:54.353Z,4.87
2019-02-05T08:44:23.734Z,4.65
2019-02-05T08:46:53.328Z,4.70
2019-02-05T08:49:22.724Z,4.97
2019-02-05T08:51:52.488Z,4.35
2019-02-05T08:54:21.882Z,4.63
2019-02-05T08:56:51.279Z,4.77
2019-02-05T08:59:21.198Z,4.73
2019-02-05T09:01:50.806Z,4.90
2019-02-05T09:04:20.423Z,4.78
2019-02-05T09:06:49.792Z,4.60
2019-02-05T09:09:19.180Z,5.20
2019-02-05T09:11:48.673Z,5.10
2019-02-05T09:14:18.067Z,4.60
2019-02-05T09:16:47.448Z,5.33
2019-02-05T09:19:17.151Z,5.30
2019-02-05T09:21:49.780Z,5.20
2019-02-05T09:24:18.920Z,4.90
2019-02-05T09:26:48.283Z,5.40
2019-02-05T09:29:18.556Z,4.67
2019-02-05T09:31:48.150Z,4.23
2019-02-05T09:34:17.523Z,4.97
2019-02-05T09:36:46.886Z,4.97
2019-02-05T09:39:16.273Z,4.90
2019-02-05T09:41:45.782Z,4.77
2019-02-05T09:44:15.211Z,4.97
2019-02-05T09:46:44.858Z,4.77
2019-02-05T09:49:14.262Z,4.70
2019-02-05T09:51:43.651Z,4.75
2019-02-05T09:54:13.228Z,4.80
2019-02-05T09:56:42.581Z,4.17
2019-02-05T09:59:15.380Z,5.37
2019-02-05T10:01:45.138Z,4.40
2019-02-05T10:04:14.516Z,4.17
2019-02-05T10:06:44.160Z,4.35
2019-02-05T10:09:13.537Z,4.33
2019-02-05T10:11:43.133Z,5.07
2019-02-05T10:14:12.511Z,5.28
2019-02-05T10:16:41.922Z,4.07
2019-02-05T10:19:12.015Z,4.33
2019-02-05T10:21:41.390Z,4.50
2019-02-05T10:24:10.827Z,4.47
2019-02-05T10:26:40.201Z,4.13
2019-02-05T10:29:09.913Z,3.98
2019-02-05T10:31:39.308Z,4.20
2019-02-05T10:34:08.839Z,4.47
2019-02-05T10:36:38.235Z,4.63
2019-02-05T10:39:10.189Z,4.10
2019-02-05T10:41:39.612Z,4.57
2019-02-05T10:44:09.124Z,4.30
2019-02-05T10:46:38.728Z,4.20
2019-02-05T10:49:08.172Z,4.20
2019-02-05T10:51:37.576Z,4.30
2019-02-05T10:54:07.719Z,5.40
2019-02-05T10:56:38.572Z,3.83
2019-02-05T10:59:08.059Z,4.63
2019-02-05T11:01:40.484Z,4.57
2019-02-05T11:04:09.913Z,4.17
2019-02-05T11:06:39.367Z,4.20
2019-02-05T11:09:09.488Z,4.43
2019-02-05T11:11:38.875Z,4.63
2019-02-05T11:14:08.316Z,3.80
2019-02-05T11:16:37.955Z,4.10
2019-02-05T11:19:07.318Z,4.30
2019-02-05T11:21:37.078Z,4.73
2019-02-05T11:24:07.291Z,3.87
2019-02-05T11:26:36.980Z,4.22
2019-02-05T11:29:06.452Z,3.90
2019-02-05T11:31:36.059Z,4.30
2019-02-05T11:34:06.426Z,4.10
2019-02-05T11:36:35.803Z,4.00
2019-02-05T11:39:09.790Z,4.37
2019-02-05T11:41:39.161Z,4.27
2019-02-05T11:44:08.562Z,4.40
2019-02-05T11:46:37.993Z,3.73
2019-02-05T11:49:07.423Z,4.70
2019-02-05T11:51:41.390Z,4.53
2019-02-05T11:54:10.751Z,4.20
2019-02-05T11:56:40.376Z,4.30
2019-02-05T11:59:09.771Z,3.77
2019-02-05T12:01:40.492Z,4.22
2019-02-05T12:04:10.751Z,4.55
2019-02-05T12:06:40.118Z,4.23
2019-02-05T12:09:16.449Z,5.20
2019-02-05T12:11:46.078Z,5.80
2019-02-05T12:14:18.548Z,4.70
2019-02-05T12:17:07.327Z,4.53
2019-02-05T12:19:36.971Z,4.60
2019-02-05T12:22:06.475Z,4.80
2019-02-05T12:24:36.088Z,4.90
2019-02-05T12:27:05.867Z,5.03
2019-02-05T12:29:35.243Z,5.40
2019-02-05T12:32:04.756Z,5.50
2019-02-05T12:34:34.508Z,4.93
2019-02-05T12:37:03.950Z,5.12
2019-02-05T12:39:33.385Z,4.90
2019-02-05T12:42:02.760Z,5.33
2019-02-05T12:44:32.125Z,4.80
2019-02-05T12:47:01.509Z,4.30
2019-02-05T12:49:30.886Z,5.22
2019-02-05T12:52:00.252Z,5.73
2019-02-05T12:54:29.627Z,5.07
2019-02-05T12:56:58.997Z,5.60
2019-02-05T12:59:28.384Z,5.10
2019-02-05T13:01:57.789Z,5.90
2019-02-05T13:04:27.134Z,5.87
2019-02-05T13:06:56.681Z,5.83
2019-02-05T13:09:26.069Z,5.37
2019-02-05T13:11:56.266Z,5.55
2019-02-05T13:14:26.643Z,5.60
2019-02-05T13:16:56.334Z,5.03
2019-02-05T13:19:25.709Z,5.70
2019-02-05T13:21:56.907Z,5.80
2019-02-05T13:24:26.387Z,6.60
2019-02-05T13:26:55.743Z,5.72
2019-02-05T13:29:28.707Z,6.23
2019-02-05T13:31:56.469Z,6.43
2019-02-05T13:34:26.401Z,6.57
2019-02-05T13:36:55.760Z,7.00
2019-02-05T13:39:25.139Z,6.43
2019-02-05T13:41:54.731Z,6.40
2019-02-05T13:44:24.128Z,6.10
2019-02-05T13:46:53.490Z,6.60
2019-02-05T13:49:22.939Z,6.55
2019-02-05T13:51:52.310Z,6.87
2019-02-05T13:54:21.686Z,6.00
2019-02-05T13:56:51.310Z,6.10
2019-02-05T13:59:20.685Z,6.93
2019-02-05T14:01:50.314Z,5.73
2019-02-05T14:04:19.861Z,6.57
2019-02-05T14:06:50.623Z,6.37
2019-02-05T14:09:20.436Z,6.83
2019-02-05T14:11:49.795Z,6.67
2019-02-05T14:14:19.415Z,6.47
2019-02-05T14:16:49.130Z,6.67
2019-02-05T14:19:18.596Z,6.70
2019-02-05T14:21:47.951Z,6.93
2019-02-05T14:24:17.614Z,6.07
2019-02-05T14:26:46.981Z,6.80
2019-02-05T14:29:16.411Z,6.67
2019-02-05T14:31:45.799Z,6.70
2019-02-05T14:34:15.349Z,7.17
2019-02-05T14:36:44.731Z,7.83
2019-02-05T14:39:14.104Z,7.05
2019-02-05T14:41:43.812Z,7.23
2019-02-05T14:44:13.438Z,7.70
2019-02-05T14:46:43.058Z,6.80
2019-02-05T14:49:12.504Z,7.80
2019-02-05T14:51:42.445Z,7.35
2019-02-05T14:54:11.822Z,8.17
2019-02-05T14:56:41.201Z,7.35
2019-02-05T14:59:10.603Z,7.50
2019-02-05T15:01:43.301Z,6.90
2019-02-05T15:04:11.089Z,7.73
2019-02-05T15:06:40.447Z,7.60
2019-02-05T15:09:09.912Z,8.13
2019-02-05T15:11:39.474Z,7.17
2019-02-05T15:14:08.981Z,6.97
2019-02-05T15:16:38.381Z,7.43
2019-02-05T15:19:07.734Z,6.93
2019-02-05T15:21:37.116Z,7.70
2019-02-05T15:24:06.627Z,6.87
2019-02-05T15:26:36.013Z,7.60
2019-02-05T15:29:05.537Z,7.13
2019-02-05T15:31:36.330Z,6.30
2019-02-05T15:34:08.027Z,7.03
2019-02-05T15:36:37.405Z,6.67
2019-02-05T15:39:11.411Z,7.50
2019-02-05T15:41:40.785Z,7.55
2019-02-05T15:44:10.556Z,7.17
2019-02-05T15:46:39.925Z,6.63
2019-02-05T15:49:09.359Z,7.07
2019-02-05T15:51:38.848Z,6.80
2019-02-05T15:54:08.304Z,7.30
2019-02-05T15:56:37.743Z,5.63
2019-02-05T15:59:07.384Z,6.10
2019-02-05T16:01:36.830Z,6.95
2019-02-05T16:04:06.446Z,6.80
2019-02-05T16:06:35.834Z,7.00
2019-02-05T16:09:07.370Z,7.45
2019-02-05T16:11:36.753Z,5.95
2019-02-05T16:14:06.870Z,6.22
2019-02-05T16:16:36.248Z,6.63
2019-02-05T16:19:05.696Z,5.63
2019-02-05T16:21:35.074Z,5.70
2019-02-05T16:24:05.075Z,6.33
2019-02-05T16:26:34.508Z,5.53
2019-02-05T16:29:04.608Z,5.53
2019-02-05T16:31:33.971Z,5.43
2019-02-05T16:34:03.961Z,5.78
2019-02-05T16:36:33.325Z,6.13
2019-02-05T16:39:02.705Z,6.13
2019-02-05T16:41:32.069Z,5.43
2019-02-05T16:44:01.833Z,5.37
2019-02-05T16:46:31.431Z,5.80
2019-02-05T16:49:00.806Z,5.00
2019-02-05T16:51:30.168Z,5.03
2019-02-05T16:53:59.596Z,5.10
2019-02-05T16:56:29.037Z,5.43
2019-02-05T16:58:58.697Z,6.33
2019-02-05T17:01:28.299Z,5.40
2019-02-05T17:03:57.921Z,6.70
2019-02-05T17:06:27.296Z,4.97
2019-02-05T17:08:56.661Z,5.72
2019-02-05T17:11:26.026Z,5.53
2019-02-05T17:13:55.583Z,5.43
2019-02-05T17:16:24.948Z,5.50
2019-02-05T17:18:54.317Z,5.30
2019-02-05T17:21:23.935Z,4.67
2019-02-05T17:23:53.794Z,4.83
2019-02-05T17:26:23.179Z,4.67
2019-02-05T17:28:52.830Z,5.13
2019-02-05T17:31:22.273Z,5.80
2019-02-05T17:33:51.674Z,5.20
2019-02-05T17:36:21.044Z,4.90
2019-02-05T17:38:50.456Z,3.70
2019-02-05T17:41:19.793Z,3.53
2019-02-05T17:43:50.519Z,3.90
2019-02-05T17:46:20.392Z,3.60
2019-02-05T17:48:49.772Z,4.70
2019-02-05T17:51:19.222Z,4.97
2019-02-05T17:53:48.627Z,4.50
2019-02-05T17:56:18.021Z,4.57
2019-02-05T17:58:47.569Z,4.78
2019-02-05T18:01:17.198Z,4.90
2019-02-05T18:03:46.978Z,4.42
2019-02-05T18:06:16.394Z,4.83
2019-02-05T18:08:45.729Z,4.50
2019-02-05T18:11:15.106Z,4.70
2019-02-05T18:13:44.761Z,4.80
2019-02-05T18:16:14.279Z,4.90
2019-02-05T18:18:44.611Z,4.78
2019-02-05T18:21:13.989Z,4.97
2019-02-05T18:23:43.385Z,5.20
2019-02-05T18:26:12.895Z,4.78
2019-02-05T18:28:42.270Z,4.57
2019-02-05T18:31:11.786Z,4.50
2019-02-05T18:33:41.168Z,3.60
2019-02-05T18:36:10.886Z,3.70
2019-02-05T18:38:40.592Z,3.20
2019-02-05T18:41:10.060Z,3.30
2019-02-05T18:43:39.553Z,3.70
2019-02-05T18:46:08.923Z,3.67
2019-02-05T18:48:38.299Z,3.25
2019-02-05T18:51:08.097Z,3.80
2019-02-05T18:53:37.623Z,4.00
2019-02-05T18:56:07.063Z,4.20
2019-02-05T18:58:39.438Z,4.10
2019-02-05T19:01:08.880Z,3.80
2019-02-05T19:03:40.842Z,3.70
2019-02-05T19:06:10.215Z,3.47
2019-02-05T19:08:39.952Z,2.90
2019-02-05T19:11:09.738Z,3.50
2019-02-05T19:13:39.320Z,2.90
2019-02-05T19:16:08.722Z,3.23
2019-02-05T19:18:38.089Z,3.70
2019-02-05T19:21:07.528Z,4.07
2019-02-05T19:23:58.771Z,3.57
2019-02-05T19:26:28.616Z,3.67
2019-02-05T19:28:58.984Z,4.40
2019-02-05T19:31:33.601Z,4.80
2019-02-05T19:34:03.299Z,4.50
2019-02-05T19:36:32.630Z,5.50
2019-02-05T19:39:06.646Z,4.97
2019-02-05T19:41:36.001Z,4.90
2019-02-05T19:44:05.677Z,5.33
2019-02-05T19:46:39.584Z,5.20
2019-02-05T19:49:20.320Z,4.90
2019-02-05T19:51:41.966Z,4.93
2019-02-05T19:54:11.642Z,5.53
2019-02-05T19:56:41.134Z,4.23
2019-02-05T19:59:19.792Z,4.30
2019-02-05T20:01:49.193Z,5.40
2019-02-05T20:04:18.519Z,4.63
2019-02-05T20:06:47.971Z,4.33
2019-02-05T20:09:17.337Z,4.57
2019-02-05T20:11:46.725Z,4.47
2019-02-05T20:14:16.156Z,5.33
2019-02-05T20:16:45.647Z,4.03
2019-02-05T20:19:14.959Z,4.70
2019-02-05T20:21:44.771Z,3.77
2019-02-05T20:24:14.396Z,4.45
2019-02-05T20:26:54.562Z,4.70
2019-02-05T20:29:25.586Z,4.10
2019-02-05T20:32:02.386Z,5.07
2019-02-05T20:34:35.871Z,4.20
2019-02-05T20:37:05.482Z,4.43
2019-02-05T20:39:37.814Z,5.03
2019-02-05T20:42:07.257Z,4.40
2019-02-05T20:44:38.240Z,4.10
2019-02-05T20:47:11.651Z,4.60
2019-02-05T20:49:43.945Z,4.12
2019-02-05T20:52:13.412Z,3.90
2019-02-05T20:54:42.849Z,3.63
2019-02-05T20:57:12.380Z,3.80
2019-02-05T20:59:41.873Z,3.77
2019-02-05T21:02:12.471Z,3.63
2019-02-05T21:04:48.544Z,4.17
2019-02-05T21:07:20.817Z,4.13
2019-02-05T21:09:50.688Z,4.03
2019-02-05T21:12:24.789Z,4.33
2019-02-05T21:14:56.097Z,4.13
2019-02-05T21:17:25.669Z,4.47
2019-02-05T21:19:59.831Z,4.20
2019-02-05T21:22:30.923Z,4.20
2019-02-05T21:25:02.402Z,4.30
2019-02-05T21:27:31.789Z,5.10
2019-02-05T21:30:02.789Z,4.97
2019-02-05T21:32:32.515Z,5.10
2019-02-05T21:35:01.906Z,5.15
2019-02-05T21:37:34.847Z,5.23
2019-02-05T21:40:08.010Z,5.03
2019-02-05T21:42:37.558Z,6.13
2019-02-05T21:45:18.609Z,4.70
2019-02-05T21:48:07.333Z,5.37
2019-02-05T21:50:36.952Z,5.20
2019-02-05T21:53:06.308Z,5.03
2019-02-05T21:55:36.633Z,4.60
2019-02-05T21:58:06.245Z,4.77
2019-02-05T22:00:36.837Z,5.37
2019-02-05T22:03:07.487Z,5.93
2019-02-05T22:05:36.866Z,8.03
2019-02-05T22:08:08.783Z,8.98
2019-02-05T22:10:38.058Z,7.97
2019-02-05T22:13:07.540Z,8.53
2019-02-05T22:15:36.903Z,8.93
2019-02-05T22:18:06.592Z,8.90
2019-02-05T22:20:36.904Z,9.10
2019-02-05T22:23:06.880Z,9.43
2019-02-05T22:25:36.232Z,7.85
2019-02-05T22:28:06.167Z,7.83
2019-02-05T22:30:38.764Z,8.10
2019-02-05T22:33:08.976Z,7.33
2019-02-05T22:35:38.476Z,8.00
2019-02-05T22:38:07.926Z,8.87
2019-02-05T22:40:37.294Z,9.23
2019-02-05T22:43:07.039Z,9.27
2019-02-05T22:45:36.425Z,9.18
2019-02-05T22:48:07.538Z,7.53
2019-02-05T22:50:38.553Z,8.27
2019-02-05T22:53:10.557Z,8.30
2019-02-05T22:55:39.999Z,8.97
2019-02-05T22:58:09.691Z,9.50
2019-02-05T23:01:01.571Z,9.67
2019-02-05T23:03:41.463Z,9.70
2019-02-05T23:06:39.291Z,10.20
2019-02-05T23:09:16.202Z,9.90
2019-02-05T23:12:14.459Z,10.93
2019-02-05T23:14:47.487Z,10.50
2019-02-05T23:17:16.957Z,10.37
2019-02-05T23:19:46.294Z,10.63
2019-02-05T23:22:15.977Z,10.70
2019-02-05T23:24:45.344Z,10.43
2019-02-05T23:27:14.721Z,11.10
2019-02-05T23:29:44.643Z,10.57
2019-02-05T23:32:14.017Z,10.25
2019-02-05T23:34:43.461Z,11.43
2019-02-05T23:37:12.885Z,11.33
2019-02-05T23:39:42.235Z,10.57
2019-02-05T23:42:11.623Z,10.10
2019-02-05T23:44:41.169Z,10.40
2019-02-05T23:47:10.535Z,9.63
2019-02-05T23:49:39.904Z,10.03
2019-02-05T23:52:09.288Z,9.68
2019-02-05T23:54:38.665Z,9.58
2019-02-05T23:57:09.962Z,9.40
2019-02-05T23:59:39.132Z,9.50
